sensor_id;sensor_type;location;lat;lon;timestamp;P1;durP1;ratioP1;P2;durP2;ratioP2
38859;SDS011;24609;48.316;16.174;2023-09-12T00:02:06;9.90;;;8.40;;
38859;SDS011;24609;48.316;16.174;2023-09-12T00:04:31;10.82;;;8.57;;
38859;SDS011;24609;48.316;16.174;2023-09-12T00:06:57;10.07;;;8.57;;
38859;SDS011;24609;48.316;16.174;2023-09-12T00:09:23;10.75;;;9.02;;
38859;SDS011;24609;48.316;16.174;2023-09-12T00:11:48;11.40;;;9.82;;
38859;SDS011;24609;48.316;16.174;2023-09-12T00:14:15;11.60;;;10.32;;
38859;SDS011;24609;48.316;16.174;2023-09-12T00:16:41;10.07;;;9.15;;
38859;SDS011;24609;48.316;16.174;2023-09-12T00:19:07;10.13;;;9.13;;
38859;SDS011;24609;48.316;16.174;2023-09-12T00:21:32;10.90;;;8.98;;
38859;SDS011;24609;48.316;16.174;2023-09-12T00:23:58;10.63;;;9.55;;
38859;SDS011;24609;48.316;16.174;2023-09-12T00:26:24;10.45;;;9.27;;
38859;SDS011;24609;48.316;16.174;2023-09-12T00:28:49;10.55;;;9.55;;
38859;SDS011;24609;48.316;16.174;2023-09-12T00:31:15;10.65;;;9.55;;
38859;SDS011;24609;48.316;16.174;2023-09-12T00:33:41;11.43;;;9.55;;
38859;SDS011;24609;48.316;16.174;2023-09-12T00:36:06;12.70;;;10.40;;
38859;SDS011;24609;48.316;16.174;2023-09-12T00:38:32;13.93;;;9.82;;
38859;SDS011;24609;48.316;16.174;2023-09-12T00:40:58;10.80;;;9.70;;
38859;SDS011;24609;48.316;16.174;2023-09-12T00:43:23;12.02;;;10.35;;
38859;SDS011;24609;48.316;16.174;2023-09-12T00:45:49;12.02;;;10.82;;
38859;SDS011;24609;48.316;16.174;2023-09-12T00:48:15;10.93;;;9.85;;
38859;SDS011;24609;48.316;16.174;2023-09-12T00:50:43;11.93;;;10.60;;
38859;SDS011;24609;48.316;16.174;2023-09-12T00:53:11;11.73;;;10.45;;
38859;SDS011;24609;48.316;16.174;2023-09-12T00:55:37;9.73;;;8.73;;
38859;SDS011;24609;48.316;16.174;2023-09-12T00:58:08;11.05;;;9.95;;
38859;SDS011;24609;48.316;16.174;2023-09-12T01:00:33;10.60;;;9.38;;
38859;SDS011;24609;48.316;16.174;2023-09-12T01:02:59;12.43;;;9.98;;
38859;SDS011;24609;48.316;16.174;2023-09-12T01:05:25;13.23;;;10.18;;
38859;SDS011;24609;48.316;16.174;2023-09-12T01:07:53;10.70;;;9.60;;
38859;SDS011;24609;48.316;16.174;2023-09-12T01:10:19;15.30;;;11.23;;
38859;SDS011;24609;48.316;16.174;2023-09-12T01:12:45;12.75;;;11.02;;
38859;SDS011;24609;48.316;16.174;2023-09-12T01:15:10;12.05;;;10.93;;
38859;SDS011;24609;48.316;16.174;2023-09-12T01:17:40;12.73;;;9.63;;
38859;SDS011;24609;48.316;16.174;2023-09-12T01:20:08;12.60;;;10.80;;
38859;SDS011;24609;48.316;16.174;2023-09-12T01:27:46;13.20;;;11.80;;
38859;SDS011;24609;48.316;16.174;2023-09-12T01:30:17;14.70;;;11.18;;
38859;SDS011;24609;48.316;16.174;2023-09-12T01:32:45;11.45;;;10.35;;
38859;SDS011;24609;48.316;16.174;2023-09-12T01:35:12;12.27;;;10.90;;
38859;SDS011;24609;48.316;16.174;2023-09-12T01:37:38;12.13;;;10.93;;
38859;SDS011;24609;48.316;16.174;2023-09-12T01:40:04;10.77;;;9.68;;
38859;SDS011;24609;48.316;16.174;2023-09-12T01:42:32;10.68;;;9.57;;
38859;SDS011;24609;48.316;16.174;2023-09-12T01:45:05;11.45;;;10.02;;
38859;SDS011;24609;48.316;16.174;2023-09-12T01:50:01;11.30;;;10.15;;
38859;SDS011;24609;48.316;16.174;2023-09-12T01:52:28;11.38;;;10.25;;
38859;SDS011;24609;48.316;16.174;2023-09-12T01:54:54;11.95;;;10.75;;
38859;SDS011;24609;48.316;16.174;2023-09-12T01:57:21;12.57;;;11.38;;
38859;SDS011;24609;48.316;16.174;2023-09-12T01:59:47;12.93;;;11.40;;
38859;SDS011;24609;48.316;16.174;2023-09-12T02:02:17;11.30;;;10.20;;
38859;SDS011;24609;48.316;16.174;2023-09-12T02:04:50;14.10;;;12.57;;
38859;SDS011;24609;48.316;16.174;2023-09-12T02:07:24;12.00;;;10.52;;
38859;SDS011;24609;48.316;16.174;2023-09-12T02:09:52;13.32;;;12.02;;
38859;SDS011;24609;48.316;16.174;2023-09-12T02:12:17;11.88;;;10.65;;
38859;SDS011;24609;48.316;16.174;2023-09-12T02:14:43;12.27;;;10.95;;
38859;SDS011;24609;48.316;16.174;2023-09-12T02:17:08;12.43;;;10.65;;
38859;SDS011;24609;48.316;16.174;2023-09-12T02:19:34;12.73;;;11.00;;
38859;SDS011;24609;48.316;16.174;2023-09-12T02:22:00;11.63;;;10.43;;
38859;SDS011;24609;48.316;16.174;2023-09-12T02:24:25;13.73;;;12.30;;
38859;SDS011;24609;48.316;16.174;2023-09-12T02:26:51;14.63;;;13.13;;
38859;SDS011;24609;48.316;16.174;2023-09-12T02:29:17;16.40;;;10.68;;
38859;SDS011;24609;48.316;16.174;2023-09-12T02:31:43;12.10;;;10.90;;
38859;SDS011;24609;48.316;16.174;2023-09-12T02:34:08;13.20;;;11.55;;
38859;SDS011;24609;48.316;16.174;2023-09-12T02:36:34;15.63;;;12.85;;
38859;SDS011;24609;48.316;16.174;2023-09-12T02:39:00;12.73;;;11.43;;
38859;SDS011;24609;48.316;16.174;2023-09-12T02:41:25;14.43;;;12.95;;
38859;SDS011;24609;48.316;16.174;2023-09-12T02:43:51;13.82;;;12.52;;
38859;SDS011;24609;48.316;16.174;2023-09-12T02:46:17;12.75;;;11.45;;
38859;SDS011;24609;48.316;16.174;2023-09-12T02:48:42;13.80;;;12.15;;
38859;SDS011;24609;48.316;16.174;2023-09-12T02:51:08;15.10;;;13.65;;
38859;SDS011;24609;48.316;16.174;2023-09-12T02:53:34;12.77;;;11.48;;
38859;SDS011;24609;48.316;16.174;2023-09-12T02:55:59;12.85;;;11.48;;
38859;SDS011;24609;48.316;16.174;2023-09-12T02:58:25;12.38;;;11.18;;
38859;SDS011;24609;48.316;16.174;2023-09-12T03:00:51;16.13;;;13.07;;
38859;SDS011;24609;48.316;16.174;2023-09-12T03:03:19;15.60;;;13.20;;
38859;SDS011;24609;48.316;16.174;2023-09-12T03:05:45;14.60;;;12.55;;
38859;SDS011;24609;48.316;16.174;2023-09-12T03:08:11;13.35;;;12.05;;
38859;SDS011;24609;48.316;16.174;2023-09-12T03:10:36;14.73;;;13.23;;
38859;SDS011;24609;48.316;16.174;2023-09-12T03:13:02;13.75;;;12.45;;
38859;SDS011;24609;48.316;16.174;2023-09-12T03:15:28;13.43;;;11.98;;
38859;SDS011;24609;48.316;16.174;2023-09-12T03:17:53;14.68;;;12.00;;
38859;SDS011;24609;48.316;16.174;2023-09-12T03:20:19;14.05;;;12.68;;
38859;SDS011;24609;48.316;16.174;2023-09-12T03:22:45;12.60;;;11.25;;
38859;SDS011;24609;48.316;16.174;2023-09-12T03:25:11;13.95;;;12.65;;
38859;SDS011;24609;48.316;16.174;2023-09-12T03:27:36;15.35;;;11.65;;
38859;SDS011;24609;48.316;16.174;2023-09-12T03:30:03;14.20;;;11.45;;
38859;SDS011;24609;48.316;16.174;2023-09-12T03:32:29;12.23;;;10.95;;
38859;SDS011;24609;48.316;16.174;2023-09-12T03:34:55;13.98;;;12.30;;
38859;SDS011;24609;48.316;16.174;2023-09-12T03:37:21;15.80;;;13.63;;
38859;SDS011;24609;48.316;16.174;2023-09-12T03:39:47;15.75;;;14.20;;
38859;SDS011;24609;48.316;16.174;2023-09-12T03:42:12;15.63;;;13.93;;
38859;SDS011;24609;48.316;16.174;2023-09-12T03:44:38;14.10;;;12.68;;
38859;SDS011;24609;48.316;16.174;2023-09-12T03:47:04;14.90;;;13.32;;
38859;SDS011;24609;48.316;16.174;2023-09-12T03:49:29;17.20;;;13.25;;
38859;SDS011;24609;48.316;16.174;2023-09-12T03:51:55;12.02;;;10.25;;
38859;SDS011;24609;48.316;16.174;2023-09-12T03:54:21;15.68;;;14.23;;
38859;SDS011;24609;48.316;16.174;2023-09-12T03:56:46;14.45;;;12.90;;
38859;SDS011;24609;48.316;16.174;2023-09-12T03:59:12;13.20;;;11.88;;
38859;SDS011;24609;48.316;16.174;2023-09-12T04:01:38;13.55;;;12.15;;
38859;SDS011;24609;48.316;16.174;2023-09-12T04:04:03;14.45;;;12.90;;
38859;SDS011;24609;48.316;16.174;2023-09-12T04:06:29;16.63;;;12.68;;
38859;SDS011;24609;48.316;16.174;2023-09-12T04:08:55;15.40;;;13.05;;
38859;SDS011;24609;48.316;16.174;2023-09-12T04:11:20;14.93;;;13.43;;
38859;SDS011;24609;48.316;16.174;2023-09-12T04:13:46;13.77;;;12.32;;
38859;SDS011;24609;48.316;16.174;2023-09-12T04:16:11;14.38;;;12.88;;
38859;SDS011;24609;48.316;16.174;2023-09-12T04:18:38;14.10;;;12.70;;
38859;SDS011;24609;48.316;16.174;2023-09-12T04:21:03;15.55;;;13.35;;
38859;SDS011;24609;48.316;16.174;2023-09-12T04:23:29;15.60;;;13.35;;
38859;SDS011;24609;48.316;16.174;2023-09-12T04:25:55;15.02;;;13.45;;
38859;SDS011;24609;48.316;16.174;2023-09-12T04:28:20;13.68;;;12.30;;
38859;SDS011;24609;48.316;16.174;2023-09-12T04:30:46;21.80;;;15.32;;
38859;SDS011;24609;48.316;16.174;2023-09-12T04:33:12;17.83;;;15.93;;
38859;SDS011;24609;48.316;16.174;2023-09-12T04:35:37;21.48;;;13.73;;
38859;SDS011;24609;48.316;16.174;2023-09-12T04:38:03;14.43;;;12.93;;
38859;SDS011;24609;48.316;16.174;2023-09-12T04:40:29;16.10;;;13.30;;
38859;SDS011;24609;48.316;16.174;2023-09-12T04:42:55;15.32;;;13.05;;
38859;SDS011;24609;48.316;16.174;2023-09-12T04:45:20;14.50;;;13.00;;
38859;SDS011;24609;48.316;16.174;2023-09-12T04:47:46;14.35;;;12.93;;
38859;SDS011;24609;48.316;16.174;2023-09-12T04:50:11;14.73;;;13.23;;
38859;SDS011;24609;48.316;16.174;2023-09-12T04:52:38;14.85;;;12.43;;
38859;SDS011;24609;48.316;16.174;2023-09-12T04:55:03;16.42;;;14.00;;
38859;SDS011;24609;48.316;16.174;2023-09-12T04:57:30;14.30;;;12.80;;
38859;SDS011;24609;48.316;16.174;2023-09-12T04:59:56;15.60;;;12.85;;
38859;SDS011;24609;48.316;16.174;2023-09-12T05:02:23;17.00;;;15.27;;
38859;SDS011;24609;48.316;16.174;2023-09-12T05:04:50;15.77;;;14.07;;
38859;SDS011;24609;48.316;16.174;2023-09-12T05:07:15;16.65;;;15.05;;
38859;SDS011;24609;48.316;16.174;2023-09-12T05:09:41;14.25;;;12.65;;
38859;SDS011;24609;48.316;16.174;2023-09-12T05:12:07;15.60;;;13.68;;
38859;SDS011;24609;48.316;16.174;2023-09-12T05:14:33;15.23;;;13.63;;
38859;SDS011;24609;48.316;16.174;2023-09-12T05:16:59;17.05;;;15.45;;
38859;SDS011;24609;48.316;16.174;2023-09-12T05:19:26;19.63;;;16.80;;
38859;SDS011;24609;48.316;16.174;2023-09-12T05:21:52;17.00;;;14.25;;
38859;SDS011;24609;48.316;16.174;2023-09-12T05:24:18;16.10;;;13.50;;
38859;SDS011;24609;48.316;16.174;2023-09-12T05:26:43;16.98;;;15.07;;
38859;SDS011;24609;48.316;16.174;2023-09-12T05:29:09;18.10;;;14.80;;
38859;SDS011;24609;48.316;16.174;2023-09-12T05:31:35;19.42;;;15.77;;
38859;SDS011;24609;48.316;16.174;2023-09-12T05:34:00;19.02;;;15.10;;
38859;SDS011;24609;48.316;16.174;2023-09-12T05:36:26;17.25;;;13.95;;
38859;SDS011;24609;48.316;16.174;2023-09-12T05:38:52;18.95;;;13.38;;
38859;SDS011;24609;48.316;16.174;2023-09-12T05:41:18;14.63;;;13.20;;
38859;SDS011;24609;48.316;16.174;2023-09-12T05:43:43;15.73;;;13.60;;
38859;SDS011;24609;48.316;16.174;2023-09-12T05:46:09;17.15;;;13.85;;
38859;SDS011;24609;48.316;16.174;2023-09-12T05:48:35;19.20;;;15.63;;
38859;SDS011;24609;48.316;16.174;2023-09-12T05:51:01;20.90;;;17.30;;
38859;SDS011;24609;48.316;16.174;2023-09-12T05:53:27;18.25;;;16.52;;
38859;SDS011;24609;48.316;16.174;2023-09-12T05:55:53;20.08;;;16.90;;
38859;SDS011;24609;48.316;16.174;2023-09-12T05:58:18;16.45;;;14.32;;
38859;SDS011;24609;48.316;16.174;2023-09-12T06:00:44;17.45;;;15.77;;
38859;SDS011;24609;48.316;16.174;2023-09-12T06:03:14;17.63;;;15.93;;
38859;SDS011;24609;48.316;16.174;2023-09-12T06:05:40;17.45;;;15.68;;
38859;SDS011;24609;48.316;16.174;2023-09-12T06:08:05;18.52;;;16.60;;
38859;SDS011;24609;48.316;16.174;2023-09-12T06:10:31;15.98;;;13.13;;
38859;SDS011;24609;48.316;16.174;2023-09-12T06:12:57;14.90;;;12.90;;
38859;SDS011;24609;48.316;16.174;2023-09-12T06:15:22;16.98;;;15.18;;
38859;SDS011;24609;48.316;16.174;2023-09-12T06:17:48;14.73;;;13.15;;
38859;SDS011;24609;48.316;16.174;2023-09-12T06:20:14;13.48;;;12.18;;
38859;SDS011;24609;48.316;16.174;2023-09-12T06:22:39;14.80;;;12.65;;
38859;SDS011;24609;48.316;16.174;2023-09-12T06:25:05;13.52;;;12.18;;
38859;SDS011;24609;48.316;16.174;2023-09-12T06:27:31;13.10;;;11.68;;
38859;SDS011;24609;48.316;16.174;2023-09-12T06:29:57;13.43;;;12.05;;
38859;SDS011;24609;48.316;16.174;2023-09-12T06:32:22;12.52;;;11.20;;
38859;SDS011;24609;48.316;16.174;2023-09-12T06:34:48;12.68;;;11.18;;
38859;SDS011;24609;48.316;16.174;2023-09-12T06:37:14;13.25;;;12.00;;
38859;SDS011;24609;48.316;16.174;2023-09-12T06:39:39;11.88;;;10.80;;
38859;SDS011;24609;48.316;16.174;2023-09-12T06:42:05;11.63;;;9.48;;
38859;SDS011;24609;48.316;16.174;2023-09-12T06:44:31;12.95;;;11.32;;
38859;SDS011;24609;48.316;16.174;2023-09-12T06:46:57;12.02;;;10.35;;
38859;SDS011;24609;48.316;16.174;2023-09-12T06:49:23;11.10;;;10.05;;
38859;SDS011;24609;48.316;16.174;2023-09-12T06:51:48;12.35;;;9.55;;
38859;SDS011;24609;48.316;16.174;2023-09-12T06:54:14;10.82;;;9.70;;
38859;SDS011;24609;48.316;16.174;2023-09-12T06:56:40;11.65;;;10.50;;
38859;SDS011;24609;48.316;16.174;2023-09-12T06:59:07;12.43;;;11.07;;
38859;SDS011;24609;48.316;16.174;2023-09-12T07:01:33;11.35;;;10.43;;
38859;SDS011;24609;48.316;16.174;2023-09-12T07:03:59;11.57;;;10.20;;
38859;SDS011;24609;48.316;16.174;2023-09-12T07:06:24;12.20;;;10.80;;
38859;SDS011;24609;48.316;16.174;2023-09-12T07:08:50;13.20;;;10.93;;
38859;SDS011;24609;48.316;16.174;2023-09-12T07:11:19;12.75;;;11.45;;
38859;SDS011;24609;48.316;16.174;2023-09-12T07:13:44;12.02;;;10.50;;
38859;SDS011;24609;48.316;16.174;2023-09-12T07:16:10;13.60;;;12.27;;
38859;SDS011;24609;48.316;16.174;2023-09-12T07:18:36;12.43;;;11.15;;
38859;SDS011;24609;48.316;16.174;2023-09-12T07:21:03;12.55;;;10.80;;
38859;SDS011;24609;48.316;16.174;2023-09-12T07:23:30;11.45;;;10.35;;
38859;SDS011;24609;48.316;16.174;2023-09-12T07:25:57;13.55;;;12.35;;
38859;SDS011;24609;48.316;16.174;2023-09-12T07:28:23;11.75;;;10.75;;
38859;SDS011;24609;48.316;16.174;2023-09-12T07:30:50;11.18;;;10.07;;
38859;SDS011;24609;48.316;16.174;2023-09-12T07:33:15;10.90;;;9.75;;
38859;SDS011;24609;48.316;16.174;2023-09-12T07:35:41;14.18;;;11.90;;
38859;SDS011;24609;48.316;16.174;2023-09-12T07:38:07;14.98;;;11.40;;
38859;SDS011;24609;48.316;16.174;2023-09-12T07:40:32;11.43;;;10.32;;
38859;SDS011;24609;48.316;16.174;2023-09-12T07:42:58;15.70;;;12.23;;
38859;SDS011;24609;48.316;16.174;2023-09-12T07:45:24;12.70;;;11.25;;
38859;SDS011;24609;48.316;16.174;2023-09-12T07:47:49;11.48;;;10.27;;
38859;SDS011;24609;48.316;16.174;2023-09-12T07:50:15;12.63;;;10.52;;
38859;SDS011;24609;48.316;16.174;2023-09-12T07:52:41;13.35;;;11.95;;
38859;SDS011;24609;48.316;16.174;2023-09-12T07:55:07;10.90;;;9.85;;
38859;SDS011;24609;48.316;16.174;2023-09-12T07:57:33;11.55;;;10.45;;
38859;SDS011;24609;48.316;16.174;2023-09-12T07:59:59;12.70;;;11.48;;
38859;SDS011;24609;48.316;16.174;2023-09-12T08:02:26;13.02;;;11.73;;
38859;SDS011;24609;48.316;16.174;2023-09-12T08:04:51;10.73;;;9.80;;
38859;SDS011;24609;48.316;16.174;2023-09-12T08:07:18;11.27;;;9.77;;
38859;SDS011;24609;48.316;16.174;2023-09-12T08:09:51;11.20;;;10.20;;
38859;SDS011;24609;48.316;16.174;2023-09-12T08:12:19;12.93;;;11.50;;
38859;SDS011;24609;48.316;16.174;2023-09-12T08:14:46;12.30;;;11.20;;
38859;SDS011;24609;48.316;16.174;2023-09-12T08:17:12;12.15;;;10.65;;
38859;SDS011;24609;48.316;16.174;2023-09-12T08:19:39;12.27;;;11.05;;
38859;SDS011;24609;48.316;16.174;2023-09-12T08:22:05;11.48;;;10.10;;
38859;SDS011;24609;48.316;16.174;2023-09-12T08:24:32;11.48;;;9.45;;
38859;SDS011;24609;48.316;16.174;2023-09-12T08:26:59;10.57;;;9.57;;
38859;SDS011;24609;48.316;16.174;2023-09-12T08:29:25;10.60;;;9.60;;
38859;SDS011;24609;48.316;16.174;2023-09-12T08:31:50;10.60;;;9.60;;
38859;SDS011;24609;48.316;16.174;2023-09-12T08:34:17;11.93;;;10.38;;
38859;SDS011;24609;48.316;16.174;2023-09-12T08:36:43;11.55;;;10.45;;
38859;SDS011;24609;48.316;16.174;2023-09-12T08:39:11;10.35;;;9.45;;
38859;SDS011;24609;48.316;16.174;2023-09-12T08:41:39;11.68;;;10.57;;
38859;SDS011;24609;48.316;16.174;2023-09-12T08:44:05;11.95;;;10.45;;
38859;SDS011;24609;48.316;16.174;2023-09-12T08:46:32;10.70;;;9.60;;
38859;SDS011;24609;48.316;16.174;2023-09-12T08:48:57;10.88;;;9.77;;
38859;SDS011;24609;48.316;16.174;2023-09-12T08:51:24;12.95;;;10.32;;
38859;SDS011;24609;48.316;16.174;2023-09-12T08:53:50;10.68;;;9.73;;
38859;SDS011;24609;48.316;16.174;2023-09-12T08:56:16;9.90;;;8.95;;
38859;SDS011;24609;48.316;16.174;2023-09-12T08:58:43;9.55;;;8.68;;
38859;SDS011;24609;48.316;16.174;2023-09-12T09:01:09;10.68;;;8.80;;
38859;SDS011;24609;48.316;16.174;2023-09-12T09:03:39;9.52;;;8.60;;
38859;SDS011;24609;48.316;16.174;2023-09-12T09:06:10;9.43;;;8.52;;
38859;SDS011;24609;48.316;16.174;2023-09-12T09:08:37;9.43;;;8.60;;
38859;SDS011;24609;48.316;16.174;2023-09-12T09:11:04;9.88;;;8.73;;
38859;SDS011;24609;48.316;16.174;2023-09-12T09:13:34;11.95;;;10.07;;
38859;SDS011;24609;48.316;16.174;2023-09-12T09:16:09;10.80;;;9.55;;
38859;SDS011;24609;48.316;16.174;2023-09-12T09:21:24;9.68;;;8.77;;
38859;SDS011;24609;48.316;16.174;2023-09-12T09:23:54;12.90;;;9.60;;
38859;SDS011;24609;48.316;16.174;2023-09-12T09:26:20;11.32;;;10.13;;
38859;SDS011;24609;48.316;16.174;2023-09-12T09:31:48;11.45;;;8.82;;
38859;SDS011;24609;48.316;16.174;2023-09-12T09:34:19;12.18;;;8.77;;
38859;SDS011;24609;48.316;16.174;2023-09-12T09:36:50;10.00;;;9.18;;
38859;SDS011;24609;48.316;16.174;2023-09-12T09:39:20;9.80;;;8.05;;
38859;SDS011;24609;48.316;16.174;2023-09-12T09:41:48;10.30;;;9.30;;
38859;SDS011;24609;48.316;16.174;2023-09-12T09:44:15;9.87;;;8.93;;
38859;SDS011;24609;48.316;16.174;2023-09-12T09:46:44;9.82;;;8.93;;
38859;SDS011;24609;48.316;16.174;2023-09-12T09:49:11;9.20;;;8.40;;
38859;SDS011;24609;48.316;16.174;2023-09-12T09:51:43;10.65;;;8.77;;
38859;SDS011;24609;48.316;16.174;2023-09-12T09:54:10;12.73;;;9.27;;
38859;SDS011;24609;48.316;16.174;2023-09-12T09:56:49;9.77;;;8.77;;
38859;SDS011;24609;48.316;16.174;2023-09-12T09:59:21;9.93;;;8.82;;
38859;SDS011;24609;48.316;16.174;2023-09-12T10:01:48;16.25;;;9.32;;
38859;SDS011;24609;48.316;16.174;2023-09-12T10:04:16;10.32;;;8.05;;
38859;SDS011;24609;48.316;16.174;2023-09-12T10:06:44;10.90;;;9.77;;
38859;SDS011;24609;48.316;16.174;2023-09-12T10:09:12;11.60;;;9.52;;
38859;SDS011;24609;48.316;16.174;2023-09-12T10:11:39;12.32;;;9.27;;
38859;SDS011;24609;48.316;16.174;2023-09-12T10:14:06;11.20;;;8.90;;
38859;SDS011;24609;48.316;16.174;2023-09-12T10:16:34;11.05;;;8.57;;
38859;SDS011;24609;48.316;16.174;2023-09-12T10:19:21;11.43;;;9.60;;
38859;SDS011;24609;48.316;16.174;2023-09-12T10:22:18;9.15;;;7.93;;
38859;SDS011;24609;48.316;16.174;2023-09-12T10:24:49;10.10;;;8.73;;
38859;SDS011;24609;48.316;16.174;2023-09-12T10:27:15;10.30;;;9.00;;
38859;SDS011;24609;48.316;16.174;2023-09-12T10:29:43;8.40;;;7.53;;
38859;SDS011;24609;48.316;16.174;2023-09-12T10:32:12;10.85;;;8.77;;
38859;SDS011;24609;48.316;16.174;2023-09-12T10:34:40;10.95;;;8.70;;
38859;SDS011;24609;48.316;16.174;2023-09-12T10:37:10;10.73;;;9.63;;
38859;SDS011;24609;48.316;16.174;2023-09-12T10:39:40;10.55;;;9.43;;
38859;SDS011;24609;48.316;16.174;2023-09-12T10:42:07;12.25;;;8.20;;
38859;SDS011;24609;48.316;16.174;2023-09-12T10:44:34;11.30;;;7.85;;
38859;SDS011;24609;48.316;16.174;2023-09-12T10:47:00;8.98;;;8.18;;
38859;SDS011;24609;48.316;16.174;2023-09-12T10:49:26;9.32;;;8.27;;
38859;SDS011;24609;48.316;16.174;2023-09-12T10:51:53;10.35;;;9.07;;
38859;SDS011;24609;48.316;16.174;2023-09-12T10:54:26;15.30;;;8.20;;
38859;SDS011;24609;48.316;16.174;2023-09-12T10:57:08;9.57;;;8.38;;
38859;SDS011;24609;48.316;16.174;2023-09-12T11:02:30;10.07;;;8.23;;
38859;SDS011;24609;48.316;16.174;2023-09-12T11:04:57;9.60;;;8.60;;
38859;SDS011;24609;48.316;16.174;2023-09-12T11:07:43;10.88;;;8.38;;
38859;SDS011;24609;48.316;16.174;2023-09-12T11:12:54;10.23;;;8.43;;
38859;SDS011;24609;48.316;16.174;2023-09-12T11:15:22;11.45;;;8.30;;
38859;SDS011;24609;48.316;16.174;2023-09-12T11:17:59;9.70;;;8.35;;
38859;SDS011;24609;48.316;16.174;2023-09-12T11:20:49;11.50;;;8.38;;
38859;SDS011;24609;48.316;16.174;2023-09-12T11:23:14;9.35;;;8.38;;
38859;SDS011;24609;48.316;16.174;2023-09-12T11:25:40;10.05;;;8.10;;
38859;SDS011;24609;48.316;16.174;2023-09-12T11:28:06;9.35;;;8.13;;
38859;SDS011;24609;48.316;16.174;2023-09-12T11:30:32;9.95;;;8.93;;
38859;SDS011;24609;48.316;16.174;2023-09-12T11:32:59;12.43;;;7.97;;
38859;SDS011;24609;48.316;16.174;2023-09-12T11:35:28;9.93;;;8.50;;
38859;SDS011;24609;48.316;16.174;2023-09-12T11:37:57;10.63;;;8.55;;
38859;SDS011;24609;48.316;16.174;2023-09-12T11:40:25;9.70;;;7.47;;
38859;SDS011;24609;48.316;16.174;2023-09-12T11:43:19;12.30;;;9.10;;
38859;SDS011;24609;48.316;16.174;2023-09-12T11:45:46;10.23;;;8.05;;
38859;SDS011;24609;48.316;16.174;2023-09-12T11:48:12;9.57;;;7.93;;
38859;SDS011;24609;48.316;16.174;2023-09-12T11:50:38;10.18;;;8.27;;
38859;SDS011;24609;48.316;16.174;2023-09-12T11:53:07;10.25;;;8.45;;
38859;SDS011;24609;48.316;16.174;2023-09-12T11:55:46;10.18;;;7.85;;
38859;SDS011;24609;48.316;16.174;2023-09-12T11:58:15;11.93;;;8.23;;
38859;SDS011;24609;48.316;16.174;2023-09-12T12:00:45;10.45;;;7.97;;
38859;SDS011;24609;48.316;16.174;2023-09-12T12:03:13;9.98;;;8.43;;
38859;SDS011;24609;48.316;16.174;2023-09-12T12:05:39;9.65;;;8.25;;
38859;SDS011;24609;48.316;16.174;2023-09-12T12:08:08;9.98;;;8.50;;
38859;SDS011;24609;48.316;16.174;2023-09-12T12:10:36;9.80;;;7.93;;
38859;SDS011;24609;48.316;16.174;2023-09-12T12:13:04;11.00;;;8.57;;
38859;SDS011;24609;48.316;16.174;2023-09-12T12:15:30;11.70;;;8.38;;
38859;SDS011;24609;48.316;16.174;2023-09-12T12:17:55;10.40;;;7.68;;
38859;SDS011;24609;48.316;16.174;2023-09-12T12:20:22;10.27;;;7.88;;
38859;SDS011;24609;48.316;16.174;2023-09-12T12:22:48;10.07;;;8.77;;
38859;SDS011;24609;48.316;16.174;2023-09-12T12:25:17;9.25;;;8.35;;
38859;SDS011;24609;48.316;16.174;2023-09-12T12:27:42;11.70;;;7.90;;
38859;SDS011;24609;48.316;16.174;2023-09-12T12:30:10;13.82;;;8.27;;
38859;SDS011;24609;48.316;16.174;2023-09-12T12:32:40;12.68;;;8.02;;
38859;SDS011;24609;48.316;16.174;2023-09-12T12:35:20;10.15;;;7.70;;
38859;SDS011;24609;48.316;16.174;2023-09-12T12:37:49;13.57;;;8.57;;
38859;SDS011;24609;48.316;16.174;2023-09-12T12:40:16;8.77;;;7.35;;
38859;SDS011;24609;48.316;16.174;2023-09-12T12:42:42;13.93;;;7.60;;
38859;SDS011;24609;48.316;16.174;2023-09-12T12:45:12;9.07;;;7.60;;
38859;SDS011;24609;48.316;16.174;2023-09-12T12:47:39;14.13;;;7.88;;
38859;SDS011;24609;48.316;16.174;2023-09-12T12:50:11;10.52;;;8.18;;
38859;SDS011;24609;48.316;16.174;2023-09-12T12:52:38;10.40;;;7.60;;
38859;SDS011;24609;48.316;16.174;2023-09-12T12:55:09;10.07;;;7.28;;
38859;SDS011;24609;48.316;16.174;2023-09-12T12:57:36;12.50;;;8.02;;
38859;SDS011;24609;48.316;16.174;2023-09-12T13:00:05;8.63;;;7.50;;
38859;SDS011;24609;48.316;16.174;2023-09-12T13:02:42;8.05;;;7.25;;
38859;SDS011;24609;48.316;16.174;2023-09-12T13:05:25;9.02;;;7.78;;
38859;SDS011;24609;48.316;16.174;2023-09-12T13:07:52;9.95;;;8.07;;
38859;SDS011;24609;48.316;16.174;2023-09-12T13:10:21;10.60;;;7.80;;
38859;SDS011;24609;48.316;16.174;2023-09-12T13:12:48;8.85;;;6.75;;
38859;SDS011;24609;48.316;16.174;2023-09-12T13:15:14;8.38;;;6.97;;
38859;SDS011;24609;48.316;16.174;2023-09-12T13:17:41;8.85;;;7.88;;
38859;SDS011;24609;48.316;16.174;2023-09-12T13:20:07;7.82;;;7.13;;
38859;SDS011;24609;48.316;16.174;2023-09-12T13:22:34;8.50;;;7.43;;
38859;SDS011;24609;48.316;16.174;2023-09-12T13:25:00;9.27;;;7.45;;
38859;SDS011;24609;48.316;16.174;2023-09-12T13:27:26;10.05;;;6.93;;
38859;SDS011;24609;48.316;16.174;2023-09-12T13:29:51;8.85;;;6.32;;
38859;SDS011;24609;48.316;16.174;2023-09-12T13:32:17;8.48;;;6.97;;
38859;SDS011;24609;48.316;16.174;2023-09-12T13:34:43;11.63;;;6.55;;
38859;SDS011;24609;48.316;16.174;2023-09-12T13:37:12;6.82;;;6.13;;
38859;SDS011;24609;48.316;16.174;2023-09-12T13:39:38;8.88;;;6.75;;
38859;SDS011;24609;48.316;16.174;2023-09-12T13:42:05;8.80;;;6.70;;
38859;SDS011;24609;48.316;16.174;2023-09-12T13:44:33;6.68;;;5.85;;
38859;SDS011;24609;48.316;16.174;2023-09-12T13:46:59;7.10;;;6.32;;
38859;SDS011;24609;48.316;16.174;2023-09-12T13:49:24;9.55;;;6.22;;
38859;SDS011;24609;48.316;16.174;2023-09-12T13:51:50;7.45;;;6.13;;
38859;SDS011;24609;48.316;16.174;2023-09-12T13:54:16;9.45;;;6.80;;
38859;SDS011;24609;48.316;16.174;2023-09-12T13:56:41;7.38;;;6.15;;
38859;SDS011;24609;48.316;16.174;2023-09-12T13:59:07;11.82;;;6.57;;
38859;SDS011;24609;48.316;16.174;2023-09-12T14:01:33;7.60;;;6.70;;
38859;SDS011;24609;48.316;16.174;2023-09-12T14:03:59;8.65;;;6.63;;
38859;SDS011;24609;48.316;16.174;2023-09-12T14:06:24;7.53;;;6.65;;
38859;SDS011;24609;48.316;16.174;2023-09-12T14:08:51;9.43;;;6.68;;
38859;SDS011;24609;48.316;16.174;2023-09-12T14:11:17;9.10;;;7.43;;
38859;SDS011;24609;48.316;16.174;2023-09-12T14:13:43;11.18;;;6.35;;
38859;SDS011;24609;48.316;16.174;2023-09-12T14:16:09;10.32;;;6.65;;
38859;SDS011;24609;48.316;16.174;2023-09-12T14:18:34;12.10;;;6.70;;
38859;SDS011;24609;48.316;16.174;2023-09-12T14:21:00;8.35;;;6.60;;
38859;SDS011;24609;48.316;16.174;2023-09-12T14:23:26;10.75;;;6.45;;
38859;SDS011;24609;48.316;16.174;2023-09-12T14:25:51;11.15;;;6.70;;
38859;SDS011;24609;48.316;16.174;2023-09-12T14:28:17;12.70;;;7.22;;
38859;SDS011;24609;48.316;16.174;2023-09-12T14:30:43;11.18;;;7.00;;
38859;SDS011;24609;48.316;16.174;2023-09-12T14:33:13;7.50;;;6.47;;
38859;SDS011;24609;48.316;16.174;2023-09-12T14:35:39;9.65;;;6.38;;
38859;SDS011;24609;48.316;16.174;2023-09-12T14:38:06;9.82;;;6.18;;